Time;durP1;ratioP1;P1;durP2;ratioP2;P2;SDS_P1;SDS_P2;PMS_P1;PMS_P2;Temp;Humidity;BMP_temperature;BMP_pressure;BME280_temperature;BME280_humidity;BME280_pressure;Samples;Min_cycle;Max_cycle;Signal;HPM_P1;HPM_P2
2022/08/23 00:01:32;;;;;;;8.53;2.95;;;;;;;17.55;94.99;99741.56;1696765;82;20954;-62
2022/08/23 00:04:04;;;;;;;6.17;2.95;;;;;;;17.49;95.44;99745.16;1737121;81;21003;-62
2022/08/23 00:06:30;;;;;;;3.92;2.65;;;;;;;17.45;95.09;99750.67;1697261;82;20950;-62
2022/08/23 00:08:57;;;;;;;9.90;2.62;;;;;;;17.38;95.27;99753.88;1743766;81;20954;-62
2022/08/23 00:11:34;;;;;;;6.25;3.12;;;;;;;17.36;95.23;99754.46;1730901;81;21038;-62
2022/08/23 00:14:07;;;;;;;6.60;2.87;;;;;;;17.31;95.24;99753.95;1742728;81;20942;-62
2022/08/23 00:16:34;;;;;;;8.78;2.70;;;;;;;17.30;96.06;99760.20;1721540;82;21420;-62
2022/08/23 00:19:03;;;;;;;;;;;;;;;17.29;95.90;99753.25;1740825;81;21425;-62
2022/08/23 00:21:29;;;;;;;5.47;2.75;;;;;;;17.26;96.18;99758.77;1749723;81;20444;-62
2022/08/23 00:23:57;;;;;;;6.40;3.08;;;;;;;17.23;95.98;99756.70;1735339;82;21096;-62
2022/08/23 00:26:24;;;;;;;9.03;2.98;;;;;;;17.23;95.86;99763.79;1727880;81;20985;-62
2022/08/23 00:28:51;;;;;;;6.20;2.52;;;;;;;17.20;95.99;99757.42;1748125;81;21588;-62
2022/08/23 00:31:19;;;;;;;4.08;2.70;;;;;;;17.22;95.61;99760.31;1743351;81;22076;-62
2022/08/23 00:33:45;;;;;;;4.83;2.70;;;;;;;17.18;95.84;99752.24;1747126;81;20914;-62
2022/08/23 00:36:12;;;;;;;6.37;2.92;;;;;;;17.16;95.99;99755.95;1737746;80;20926;-62
2022/08/23 00:38:39;;;;;;;7.62;3.33;;;;;;;17.15;96.38;99751.16;1742630;81;21471;-62
2022/08/23 00:41:05;;;;;;;9.35;3.10;;;;;;;17.12;96.95;99750.06;1750346;81;20890;-62
2022/08/23 00:49:38;;;;;;;6.62;3.12;;;;;;;17.10;96.63;99757.24;1733214;81;21034;-62
2022/08/23 00:52:10;;;;;;;6.55;3.02;;;;;;;17.11;96.50;99756.31;1741969;81;20907;-62
2022/08/23 00:54:40;;;;;;;5.15;2.72;;;;;;;17.10;96.73;99758.56;1734283;81;20860;-61
2022/08/23 00:57:12;;;;;;;8.73;3.00;;;;;;;17.11;96.60;99761.59;1744980;82;20955;-62
2022/08/23 00:59:39;;;;;;;5.37;2.40;;;;;;;17.13;96.64;99763.61;1747833;82;20922;-62
2022/08/23 01:02:06;;;;;;;6.30;2.85;;;;;;;17.16;96.97;99764.70;1738954;81;21042;-62
2022/08/23 01:04:38;;;;;;;2.98;2.20;;;;;;;17.16;96.85;99763.86;1738738;81;20933;-61
2022/08/23 01:07:16;;;;;;;6.40;2.72;;;;;;;17.18;96.86;99760.16;1746820;81;20966;-62
2022/08/23 01:09:44;;;;;;;7.17;2.83;;;;;;;17.17;97.12;99765.09;1744134;81;20946;-62
2022/08/23 01:12:22;;;;;;;7.75;2.75;;;;;;;17.18;96.87;99757.52;1749262;82;21377;-61
2022/08/23 01:15:15;;;;;;;4.60;2.55;;;;;;;17.20;97.03;99755.62;1746806;81;21068;-62
2022/08/23 01:18:01;;;;;;;6.87;2.30;;;;;;;17.19;96.83;99759.20;1741414;81;20942;-62
2022/08/23 01:20:35;;;;;;;6.03;2.60;;;;;;;17.20;97.27;99747.70;1736596;81;21642;-62
2022/08/23 01:23:42;;;;;;;7.30;3.20;;;;;;;17.16;97.19;99747.55;1747390;82;21006;-62
2022/08/23 01:26:10;;;;;;;9.13;3.25;;;;;;;17.13;97.45;99741.19;1638469;87;21010;-62
2022/08/23 01:28:39;;;;;;;4.97;2.92;;;;;;;17.11;97.49;99735.20;1618965;87;21070;-62
2022/08/23 01:31:07;;;;;;;7.47;3.00;;;;;;;17.09;98.57;99733.15;1607479;87;21101;-62
2022/08/23 01:33:37;;;;;;;5.65;3.02;;;;;;;17.08;97.95;99732.77;1619564;87;20983;-62
2022/08/23 01:36:06;;;;;;;5.53;2.60;;;;;;;17.10;97.58;99733.50;1631506;87;21002;-62
2022/08/23 01:38:32;;;;;;;5.03;2.35;;;;;;;17.09;97.48;99738.42;1636715;87;21559;-62
2022/08/23 01:40:59;;;;;;;4.00;2.80;;;;;;;17.10;97.34;99738.78;1623788;87;21872;-62
2022/08/23 01:43:26;;;;;;;8.18;2.80;;;;;;;17.11;97.48;99747.08;1617699;87;21007;-62
2022/08/23 01:45:53;;;;;;;4.85;2.80;;;;;;;17.08;97.81;99747.27;1620235;87;20946;-62
2022/08/23 01:48:21;;;;;;;7.95;3.08;;;;;;;17.09;97.51;99744.19;1636074;87;26458;-62
2022/08/23 01:50:48;;;;;;;7.12;2.42;;;;;;;17.07;97.61;99739.01;1623744;87;20970;-62
2022/08/23 01:53:15;;;;;;;7.17;2.20;;;;;;;17.05;98.20;99743.55;1614697;87;21117;-62
2022/08/23 01:55:43;;;;;;;7.65;2.30;;;;;;;17.03;98.06;99733.61;1623721;87;21034;-62
2022/08/23 01:58:10;;;;;;;4.20;2.70;;;;;;;17.00;98.17;99736.48;1623831;87;21041;-62
2022/08/23 02:00:40;;;;;;;4.58;2.70;;;;;;;17.01;97.47;99742.11;1704186;82;20894;-62
2022/08/23 02:03:08;;;;;;;5.65;2.90;;;;;;;16.97;97.86;99748.09;1743075;81;21448;-62
2022/08/23 02:05:36;;;;;;;3.30;2.30;;;;;;;16.96;97.68;99746.88;1742720;82;21023;-62
2022/08/23 02:10:50;;;;;;;4.50;2.40;;;;;;;17.01;97.85;99752.66;1724895;82;22038;-62
2022/08/23 02:13:17;;;;;;;3.92;2.52;;;;;;;17.02;97.43;99753.01;1747383;81;20883;-62
2022/08/23 02:15:45;;;;;;;9.28;2.10;;;;;;;16.99;97.38;99754.55;1743854;81;20882;-62
2022/08/23 02:18:13;;;;;;;13.98;2.83;;;;;;;17.01;97.36;99747.38;1744430;82;21024;-62
2022/08/23 02:20:48;;;;;;;5.17;2.17;;;;;;;17.00;97.51;99746.55;1683663;84;21579;-62
2022/08/23 02:23:16;;;;;;;6.05;2.10;;;;;;;17.01;97.61;99744.74;1734388;81;20958;-62
2022/08/23 02:25:43;;;;;;;3.70;2.08;;;;;;;17.00;97.60;99746.55;1702038;83;20941;-62
2022/08/23 02:28:09;;;;;;;4.85;1.95;;;;;;;16.99;98.02;99742.69;1704380;83;20951;-62
2022/08/23 02:30:36;;;;;;;11.45;2.25;;;;;;;16.98;97.73;99744.97;1716573;82;21005;-62
2022/08/23 02:33:03;;;;;;;2.85;1.85;;;;;;;16.96;98.45;99738.95;1713501;82;21448;-62
2022/08/23 02:35:32;;;;;;;5.30;2.00;;;;;;;16.95;97.83;99742.56;1703280;83;20946;-62
2022/08/23 02:38:03;;;;;;;3.47;1.77;;;;;;;16.96;97.74;99740.28;1694474;83;20918;-62
2022/08/23 02:40:30;;;;;;;5.60;1.95;;;;;;;16.97;98.41;99745.91;1713464;82;21665;-62
2022/08/23 02:42:58;;;;;;;4.47;2.12;;;;;;;16.99;97.93;99749.28;1701655;82;21139;-62
2022/08/23 02:45:27;;;;;;;5.62;2.40;;;;;;;17.01;97.92;99747.38;1705060;82;20999;-62
2022/08/23 02:47:54;;;;;;;5.92;2.33;;;;;;;17.01;97.90;99750.02;1707672;83;21440;-62
2022/08/23 02:50:21;;;;;;;4.47;1.90;;;;;;;17.04;97.88;99757.70;1709727;82;20946;-62
2022/08/23 02:52:47;;;;;;;3.42;2.00;;;;;;;17.08;97.75;99750.39;1659469;84;21018;-62
2022/08/23 02:55:15;;;;;;;5.80;2.50;;;;;;;17.07;97.92;99757.47;1699249;82;21517;-62
2022/08/23 02:57:42;;;;;;;;;;;;;;;17.08;97.92;99757.83;1667727;85;20958;-62
2022/08/23 03:00:11;;;;;;;2.35;1.77;;;;;;;17.10;98.04;99759.88;1699469;83;20111;-62
2022/08/23 03:02:38;;;;;;;2.95;2.00;;;;;;;17.12;98.05;99765.89;1664273;84;20938;-62
2022/08/23 03:05:06;;;;;;;2.17;1.75;;;;;;;17.14;97.97;99766.63;1696933;83;20930;-62
2022/08/23 03:07:32;;;;;;;6.17;2.30;;;;;;;17.17;98.05;99767.72;1689783;83;21056;-62
2022/08/23 03:09:59;;;;;;;5.45;2.02;;;;;;;17.18;97.90;99768.08;1682797;84;20993;-62
2022/08/23 03:12:27;;;;;;;3.70;1.80;;;;;;;17.20;98.00;99770.13;1702448;84;20871;-62
2022/08/23 03:14:53;;;;;;;3.90;1.85;;;;;;;17.23;97.97;99771.22;1702666;83;20954;-62
2022/08/23 03:17:20;;;;;;;3.80;2.35;;;;;;;17.26;98.03;99771.47;1700114;83;21551;-62
2022/08/23 03:19:47;;;;;;;4.33;2.08;;;;;;;17.29;97.97;99770.41;1679027;84;21123;-62
2022/08/23 03:22:14;;;;;;;4.55;2.17;;;;;;;17.31;98.29;99769.80;1702052;83;21569;-62
2022/08/23 03:24:41;;;;;;;;;;;;;;;17.31;98.31;99765.84;1683421;84;20910;-62
2022/08/23 03:27:07;;;;;;;4.65;1.80;;;;;;;17.31;98.52;99768.02;1704736;84;20086;-62
2022/08/23 03:29:34;;;;;;;6.20;1.55;;;;;;;17.33;98.41;99759.97;1682391;84;20942;-62
2022/08/23 03:32:00;;;;;;;4.33;1.98;;;;;;;17.37;98.35;99761.45;1684404;83;21119;-62
2022/08/23 03:34:27;;;;;;;3.30;1.95;;;;;;;17.39;98.42;99763.02;1687899;84;20915;-62
2022/08/23 03:36:55;;;;;;;2.62;2.02;;;;;;;17.44;98.38;99773.20;1690529;84;20892;-62
2022/08/23 03:39:22;;;;;;;8.90;2.10;;;;;;;17.48;98.33;99765.44;1686778;84;20946;-62
2022/08/23 03:41:48;;;;;;;5.95;2.15;;;;;;;17.50;98.29;99762.18;1674204;84;22257;-62
2022/08/23 03:44:15;;;;;;;9.00;2.02;;;;;;;17.53;98.42;99760.66;1679446;84;21014;-62
2022/08/23 03:46:42;;;;;;;4.53;1.70;;;;;;;17.54;98.46;99758.37;1689411;84;20947;-62
2022/08/23 03:49:08;;;;;;;5.85;1.90;;;;;;;17.54;98.35;99756.22;1667366;85;20900;-62
2022/08/23 03:51:35;;;;;;;3.42;2.08;;;;;;;17.55;98.52;99762.68;1701351;84;20985;-62
2022/08/23 03:54:02;;;;;;;6.92;1.70;;;;;;;17.56;98.54;99767.02;1705262;83;21539;-62
2022/08/23 03:56:33;;;;;;;5.12;2.12;;;;;;;17.59;98.53;99769.43;1703091;84;21057;-62
2022/08/23 03:59:04;;;;;;;5.12;2.17;;;;;;;17.61;98.39;99764.85;1702721;82;20927;-62
2022/08/23 04:01:31;;;;;;;3.08;1.55;;;;;;;17.60;98.38;99757.90;1703819;82;20892;-62
2022/08/23 04:03:58;;;;;;;2.20;1.60;;;;;;;17.61;98.63;99762.21;1696514;84;20953;-62
2022/08/23 04:06:27;;;;;;;3.77;1.95;;;;;;;17.61;98.48;99764.85;1704953;84;21009;-62
2022/08/23 04:08:54;;;;;;;3.22;1.60;;;;;;;17.63;98.51;99773.50;1710475;83;21099;-62
2022/08/23 04:11:22;;;;;;;3.98;2.10;;;;;;;17.65;98.67;99784.80;1709844;84;20962;-62
2022/08/23 04:13:50;;;;;;;4.90;1.85;;;;;;;17.67;98.67;99782.89;1702089;82;20892;-62
2022/08/23 04:16:17;;;;;;;3.45;1.90;;;;;;;17.71;98.74;99785.30;1709537;83;20977;-62
2022/08/23 04:18:45;;;;;;;4.97;1.95;;;;;;;17.79;98.58;99780.31;1701789;84;20981;-62
2022/08/23 04:21:16;;;;;;;5.40;1.87;;;;;;;17.81;98.57;99782.33;1698392;84;21131;-62
2022/08/23 04:23:42;;;;;;;3.70;1.85;;;;;;;17.78;98.80;99778.58;1702201;83;20967;-62
2022/08/23 04:26:10;;;;;;;4.72;1.87;;;;;;;17.72;98.83;99776.41;1699458;83;21523;-64
2022/08/23 04:28:37;;;;;;;4.30;2.00;;;;;;;17.74;98.96;99774.50;1709045;83;20917;-62
2022/08/23 04:31:05;;;;;;;4.90;1.72;;;;;;;17.77;99.11;99774.27;1711537;83;20890;-62
2022/08/23 04:33:32;;;;;;;;;;;;;;;17.71;99.63;99778.70;1712265;83;21496;-63
2022/08/23 04:36:03;;;;;;;6.47;2.10;;;;;;;17.85;99.44;99771.91;1708186;83;20455;-62
2022/08/23 04:38:31;;;;;;;5.22;2.05;;;;;;;17.96;99.18;99769.28;1710278;83;20966;-63
2022/08/23 04:43:43;;;;;;;4.22;1.65;;;;;;;17.98;98.94;99766.51;1709147;82;21001;-62
2022/08/23 04:46:13;;;;;;;4.58;1.67;;;;;;;18.12;98.78;99771.59;1713725;82;21472;-62
2022/08/23 04:48:39;;;;;;;7.50;1.75;;;;;;;18.25;99.00;99774.09;1709925;83;20981;-62
2022/08/23 04:51:06;;;;;;;4.25;1.90;;;;;;;18.47;98.92;99766.64;1699254;82;21643;-62
2022/08/23 04:53:34;;;;;;;6.35;1.95;;;;;;;18.70;98.61;99768.28;1658887;85;20954;-62
2022/08/23 04:56:02;;;;;;;3.10;1.70;;;;;;;18.90;98.21;99770.66;1700743;83;21472;-62
2022/08/23 04:58:30;;;;;;;3.60;1.65;;;;;;;19.25;97.55;99761.66;1660940;84;21849;-62
2022/08/23 05:00:59;;;;;;;3.30;1.95;;;;;;;19.37;96.82;99771.22;1696092;82;20945;-62
2022/08/23 05:03:28;;;;;;;7.40;1.82;;;;;;;19.33;96.50;99768.98;1701447;83;20982;-62
2022/08/23 05:05:56;;;;;;;2.75;1.57;;;;;;;19.26;96.40;99765.98;1674895;85;20990;-62
2022/08/23 05:08:24;;;;;;;4.67;1.85;;;;;;;19.21;96.67;99768.16;1694602;84;20998;-62
2022/08/23 05:10:51;;;;;;;5.05;1.82;;;;;;;19.15;96.59;99763.38;1656288;85;22431;-62
2022/08/23 05:13:18;;;;;;;5.85;2.00;;;;;;;19.03;96.50;99764.39;1701178;84;20950;-64
2022/08/23 05:15:49;;;;;;;3.22;1.82;;;;;;;18.98;97.08;99768.23;1670437;85;20914;-62
2022/08/23 05:18:16;;;;;;;5.45;1.95;;;;;;;18.99;97.62;99774.40;1700460;84;21464;-63
2022/08/23 05:20:43;;;;;;;5.05;2.40;;;;;;;19.05;97.77;99773.05;1704265;84;20989;-62
2022/08/23 05:23:09;;;;;;;9.03;1.90;;;;;;;19.06;97.82;99768.11;1672060;84;21483;-62
2022/08/23 05:25:48;;;;;;;5.12;1.80;;;;;;;18.97;98.33;99736.63;1701689;84;20938;-62
2022/08/23 05:28:20;;;;;;;6.12;2.30;;;;;;;19.39;98.37;99769.30;1672027;84;20938;-62
2022/08/23 05:31:04;;;;;;;5.10;1.98;;;;;;;19.55;97.75;99774.62;1676079;83;21476;-65
2022/08/23 05:33:32;;;;;;;4.25;2.00;;;;;;;19.60;96.66;99776.41;1704459;83;21032;-63
2022/08/23 05:36:00;;;;;;;5.62;2.30;;;;;;;19.56;96.62;99767.05;1702103;84;20981;-63
2022/08/23 05:38:27;;;;;;;6.25;2.30;;;;;;;19.54;96.78;99779.57;1669282;84;20936;-63
2022/08/23 05:40:56;;;;;;;12.13;3.02;;;;;;;19.56;96.85;99777.64;1706068;83;21463;-63
2022/08/23 05:43:25;;;;;;;7.40;2.40;;;;;;;19.58;97.03;99767.77;1675223;84;20883;-63
2022/08/23 05:46:14;;;;;;;6.45;2.83;;;;;;;19.62;97.02;99771.83;1703412;84;20894;-62
2022/08/23 05:48:45;;;;;;;5.42;2.80;;;;;;;19.64;97.04;99767.25;1673928;85;21112;-63
2022/08/23 05:51:22;;;;;;;7.85;2.90;;;;;;;19.58;96.75;99770.41;1701184;82;20981;-62
2022/08/23 05:53:51;;;;;;;7.35;3.40;;;;;;;19.55;97.12;99769.32;1709520;82;20914;-63
2022/08/23 05:56:25;;;;;;;7.45;3.55;;;;;;;19.51;97.23;99771.89;1711371;82;21491;-63
2022/08/23 05:58:56;;;;;;;11.03;3.35;;;;;;;19.55;97.45;99769.32;1705851;82;21678;-63
2022/08/23 06:01:24;;;;;;;5.90;3.42;;;;;;;19.56;97.33;99780.29;1708890;82;21058;-63
2022/08/23 06:03:51;;;;;;;5.95;3.15;;;;;;;19.57;97.42;99771.37;1708292;84;20986;-63
2022/08/23 06:06:20;;;;;;;7.47;3.40;;;;;;;19.58;97.73;99767.77;1703623;83;21487;-63
2022/08/23 06:08:49;;;;;;;7.30;3.30;;;;;;;19.59;97.59;99761.49;1708947;82;20909;-63
2022/08/23 06:11:23;;;;;;;9.30;3.25;;;;;;;19.66;97.87;99758.23;1708077;82;20926;-63
2022/08/23 06:13:56;;;;;;;7.87;3.40;;;;;;;19.80;98.00;99763.69;1708092;83;20965;-63
2022/08/23 06:16:28;;;;;;;8.93;3.35;;;;;;;19.82;97.54;99760.40;1705743;83;20906;-64
2022/08/23 06:18:56;;;;;;;7.65;3.27;;;;;;;19.97;97.65;99760.06;1708673;82;21464;-63
2022/08/23 06:21:25;;;;;;;7.35;3.37;;;;;;;20.05;97.51;99762.89;1708300;83;20953;-63
2022/08/23 06:23:52;;;;;;;6.55;3.40;;;;;;;20.15;97.26;99766.44;1708487;83;20930;-63
2022/08/23 06:26:30;;;;;;;8.10;3.42;;;;;;;20.08;97.39;99775.88;1709474;83;21713;-63
2022/08/23 06:29:01;;;;;;;7.30;3.87;;;;;;;20.08;97.39;99775.88;1707033;83;20937;-63
2022/08/23 06:31:47;;;;;;;6.72;3.75;;;;;;;20.00;97.39;99779.20;1703974;82;20922;-63
2022/08/23 06:34:32;;;;;;;9.98;3.75;;;;;;;19.95;97.52;99783.22;1701374;82;20951;-64
2022/08/23 06:37:09;;;;;;;7.85;3.20;;;;;;;20.01;97.64;99781.37;1706889;83;20926;-63
2022/08/23 06:39:41;;;;;;;7.72;2.87;;;;;;;20.16;97.48;99774.73;1704296;82;21936;-62
2022/08/23 06:42:15;;;;;;;9.03;3.52;;;;;;;20.19;97.32;99781.09;1706988;82;20886;-62
2022/08/23 06:44:42;;;;;;;6.55;2.60;;;;;;;20.28;97.46;99777.66;1703741;82;20945;-63
2022/08/23 06:47:12;;;;;;;5.08;2.30;;;;;;;20.25;96.75;99788.54;1698479;82;20902;-63
2022/08/23 06:49:39;;;;;;;6.25;3.20;;;;;;;20.22;96.98;99792.78;1699789;82;21487;-63
2022/08/23 06:52:07;;;;;;;7.97;2.92;;;;;;;20.22;96.99;99786.16;1699905;82;22314;-64
2022/08/23 06:54:39;;;;;;;7.05;2.70;;;;;;;20.30;97.23;99786.30;1701255;82;21574;-63
2022/08/23 06:57:05;;;;;;;5.78;2.65;;;;;;;20.18;97.41;99789.19;1706645;82;21530;-63
2022/08/23 06:59:37;;;;;;;8.38;3.00;;;;;;;20.28;96.98;99790.92;1703022;82;21467;-62
2022/08/23 07:02:11;;;;;;;7.87;2.90;;;;;;;20.32;96.91;99791.00;1695505;82;20886;-64
2022/08/23 07:04:40;;;;;;;5.75;2.83;;;;;;;20.45;97.14;99788.63;1676146;84;21381;-64
2022/08/23 07:07:09;;;;;;;5.90;2.37;;;;;;;20.51;96.50;99788.91;1688353;82;20915;-64
2022/08/23 07:09:39;;;;;;;6.70;2.58;;;;;;;20.49;96.54;99790.85;1693192;82;20982;-64
2022/08/23 07:12:12;;;;;;;6.58;2.83;;;;;;;20.44;96.02;99789.57;1690691;82;21598;-64
2022/08/23 07:14:41;;;;;;;6.70;3.00;;;;;;;20.32;96.66;99794.97;1680954;83;21093;-64
2022/08/23 07:17:10;;;;;;;4.75;2.70;;;;;;;20.30;96.76;99794.26;1707379;82;21053;-63
2022/08/23 07:19:42;;;;;;;7.25;2.90;;;;;;;20.29;96.95;99799.71;1701182;82;21462;-64
2022/08/23 07:22:09;;;;;;;7.33;2.70;;;;;;;20.25;96.99;99791.19;1709057;82;20922;-63
2022/08/23 07:24:36;;;;;;;;;;;;;;;20.23;97.12;99795.78;1707002;82;20983;-64
2022/08/23 07:27:08;;;;;;;;;;;;;;;20.17;97.21;99801.61;1705012;82;20094;-64
2022/08/23 07:29:38;;;;;;;6.83;2.77;;;;;;;20.14;97.33;99801.88;1708368;82;20735;-63
2022/08/23 07:32:12;;;;;;;7.92;3.15;;;;;;;20.15;97.36;99807.52;1702031;82;20944;-64
2022/08/23 07:34:44;;;;;;;4.42;2.58;;;;;;;20.21;97.26;99808.31;1705172;84;20906;-64
2022/08/23 07:37:13;;;;;;;7.97;2.67;;;;;;;20.31;97.34;99803.91;1707045;82;20878;-64
2022/08/23 07:39:39;;;;;;;5.70;2.05;;;;;;;20.30;96.95;99804.86;1706319;82;21431;-64
2022/08/23 07:42:08;;;;;;;5.25;2.55;;;;;;;20.30;97.01;99807.52;1714923;82;23338;-65
2022/08/23 07:44:35;;;;;;;5.75;2.27;;;;;;;20.39;97.21;99805.04;1702387;82;21551;-64
2022/08/23 07:47:03;;;;;;;3.72;2.10;;;;;;;20.50;97.27;99804.95;1713368;82;20978;-64
2022/08/23 07:49:33;;;;;;;4.00;2.33;;;;;;;20.53;96.28;99807.39;1706825;82;20914;-64
2022/08/23 07:52:03;;;;;;;4.12;2.47;;;;;;;20.55;96.16;99812.88;1712094;82;20937;-64
2022/08/23 07:54:32;;;;;;;3.25;2.35;;;;;;;20.58;96.47;99813.11;1711396;82;21097;-64
2022/08/23 07:57:00;;;;;;;4.75;2.52;;;;;;;20.66;96.48;99815.92;1712838;82;21001;-65
2022/08/23 07:59:28;;;;;;;;;;;;;;;20.63;95.97;99821.50;1696735;84;20917;-64
2022/08/23 08:01:55;;;;;;;6.78;2.42;;;;;;;20.69;96.54;99824.94;1709418;82;20131;-64
2022/08/23 08:04:36;;;;;;;4.62;2.30;;;;;;;20.84;96.57;99828.54;1711115;82;20938;-63
2022/08/23 08:07:04;;;;;;;3.37;2.05;;;;;;;20.94;95.87;99826.76;1695433;82;21036;-64
2022/08/23 08:09:31;;;;;;;6.28;2.27;;;;;;;21.04;96.06;99830.28;1691248;82;21060;-62
2022/08/23 08:11:57;;;;;;;;;;;;;;;21.05;95.40;99823.16;1690884;82;20945;-63
2022/08/23 08:14:27;;;;;;;5.08;2.47;;;;;;;21.02;94.21;99821.61;1704432;82;20162;-63
2022/08/23 08:16:56;;;;;;;5.50;2.60;;;;;;;21.04;94.68;99831.61;1698401;84;21549;-63
2022/08/23 08:19:22;;;;;;;4.83;2.58;;;;;;;21.04;94.73;99827.63;1738265;81;21792;-64
2022/08/23 08:21:49;;;;;;;4.33;2.20;;;;;;;21.11;93.75;99827.41;1745420;81;20863;-64
2022/08/23 08:24:16;;;;;;;;;;;;;;;21.08;93.86;99825.04;1728968;80;20950;-64
2022/08/23 08:26:45;;;;;;;5.87;2.75;;;;;;;21.20;94.78;99825.28;1725799;82;20291;-63
2022/08/23 08:29:13;;;;;;;7.42;2.85;;;;;;;21.19;92.75;99832.87;1730328;80;21519;-64
2022/08/23 08:31:44;;;;;;;4.25;2.52;;;;;;;21.14;93.19;99832.45;1733990;82;21203;-63
2022/08/23 08:34:11;;;;;;;3.08;1.98;;;;;;;21.18;93.53;99836.52;1746252;81;21603;-63
2022/08/23 08:36:48;;;;;;;5.87;2.45;;;;;;;21.28;93.95;99832.53;1741670;81;20887;-63
2022/08/23 08:39:22;;;;;;;4.10;2.62;;;;;;;21.50;94.30;99826.15;1707508;83;20910;-65
2022/08/23 08:42:23;;;;;;;6.03;2.87;;;;;;;21.73;92.96;99828.02;1707387;84;20950;-64
2022/08/23 08:44:57;;;;;;;8.78;2.33;;;;;;;21.75;92.88;99823.91;1708648;83;21024;-63
2022/08/23 08:47:44;;;;;;;7.85;3.00;;;;;;;21.79;92.36;99822.62;1707447;83;20977;-64
2022/08/23 08:50:19;;;;;;;6.95;2.85;;;;;;;21.99;93.64;99828.77;1688043;83;20949;-62
2022/08/23 08:52:50;;;;;;;7.65;2.85;;;;;;;22.21;93.38;99835.59;1707908;82;20934;-62
2022/08/23 08:55:25;;;;;;;7.50;2.75;;;;;;;22.24;92.57;99835.32;1707650;84;20969;-62
2022/08/23 08:57:54;;;;;;;6.53;2.47;;;;;;;22.26;92.55;99822.70;1706350;82;21274;-62
2022/08/23 09:00:32;;;;;;;4.80;2.60;;;;;;;22.52;93.71;99823.73;1706073;83;20997;-62
2022/08/23 09:03:03;;;;;;;6.90;2.20;;;;;;;23.03;94.24;99815.37;1706015;84;20990;-62
2022/08/23 09:05:33;;;;;;;4.33;2.30;;;;;;;23.40;91.98;99820.05;1709166;83;21869;-62
2022/08/23 09:08:07;;;;;;;5.62;2.80;;;;;;;23.33;89.14;99825.66;1710095;84;20906;-62
2022/08/23 09:11:02;;;;;;;7.50;3.05;;;;;;;23.31;91.21;99816.98;1709784;83;21436;-62
2022/08/23 09:13:55;;;;;;;7.40;2.75;;;;;;;22.90;86.90;99819.67;1706125;84;20962;-63
2022/08/23 09:16:48;;;;;;;7.50;2.83;;;;;;;22.81;87.87;99817.42;1708980;83;20943;-62
2022/08/23 09:19:15;;;;;;;6.97;2.80;;;;;;;22.81;88.52;99814.75;1708766;84;21900;-62
2022/08/23 09:21:55;;;;;;;10.58;3.30;;;;;;;22.69;89.35;99813.30;1703935;84;20887;-63
2022/08/23 09:24:23;;;;;;;8.30;2.70;;;;;;;22.78;86.59;99815.05;1706979;84;21062;-62
2022/08/23 09:26:52;;;;;;;7.95;3.02;;;;;;;23.03;88.62;99807.38;1707877;84;20921;-63
2022/08/23 09:29:29;;;;;;;7.92;3.27;;;;;;;23.08;87.16;99803.74;1709968;84;20942;-62
2022/08/23 09:32:03;;;;;;;7.70;2.95;;;;;;;22.91;86.08;99800.91;1704828;84;21529;-63
2022/08/23 09:34:35;;;;;;;7.87;3.65;;;;;;;22.88;86.66;99805.20;1708920;83;20997;-63
2022/08/23 09:37:19;;;;;;;6.03;3.33;;;;;;;22.74;87.06;99818.98;1710035;84;21889;-63
2022/08/23 09:39:50;;;;;;;12.47;3.72;;;;;;;22.99;87.79;99815.67;1707004;82;20977;-62
2022/08/23 09:42:36;;;;;;;9.08;3.10;;;;;;;23.45;87.77;99827.09;1709123;82;20911;-63
2022/08/23 09:45:32;;;;;;;5.72;2.60;;;;;;;23.75;88.31;99818.86;1708243;83;20890;-63
2022/08/23 09:47:58;;;;;;;10.28;3.65;;;;;;;24.02;87.42;99821.40;1697902;83;21977;-64
2022/08/23 09:50:44;;;;;;;5.45;2.77;;;;;;;24.24;87.64;99822.70;1710119;83;20999;-64
2022/08/23 09:53:14;;;;;;;11.77;3.37;;;;;;;24.40;86.46;99832.64;1705612;83;21990;-64
2022/08/23 09:55:49;;;;;;;6.35;3.15;;;;;;;24.59;87.60;99822.27;1709418;82;21225;-64
2022/08/23 09:58:37;;;;;;;9.58;3.40;;;;;;;24.86;85.18;99835.02;1702827;82;21033;-63
2022/08/23 10:01:13;;;;;;;10.15;3.40;;;;;;;24.81;85.29;99845.34;1707337;82;20981;-66
2022/08/23 10:03:41;;;;;;;9.73;3.90;;;;;;;24.69;85.33;99837.62;1703845;82;21458;-65
2022/08/23 10:06:14;;;;;;;11.80;3.92;;;;;;;24.62;84.27;99832.61;1678467;84;20973;-65
2022/08/23 10:08:54;;;;;;;9.43;3.92;;;;;;;24.48;84.98;99826.55;1704222;82;20986;-62
2022/08/23 10:11:26;;;;;;;10.20;4.08;;;;;;;24.33;84.70;99840.42;1700406;82;21531;-62
2022/08/23 10:13:53;;;;;;;12.78;4.22;;;;;;;24.05;84.76;99840.25;1674867;84;20979;-62
2022/08/23 10:16:57;;;;;;;12.50;4.42;;;;;;;23.94;84.28;99839.17;1699878;83;21160;-62
2022/08/23 10:19:51;;;;;;;9.93;4.45;;;;;;;23.78;83.90;99845.20;1689912;84;20964;-62
2022/08/23 10:22:27;;;;;;;12.35;4.08;;;;;;;23.73;84.79;99841.70;1684983;83;20881;-61
2022/08/23 10:25:03;;;;;;;8.98;4.65;;;;;;;23.97;84.95;99844.19;1688499;83;20986;-62
2022/08/23 10:30:55;;;;;;;10.48;5.50;;;;;;;24.05;83.98;99844.25;1669947;84;21705;-61
2022/08/23 10:33:36;;;;;;;12.07;4.87;;;;;;;24.23;83.19;99842.39;1672593;84;20956;-62
2022/08/23 10:36:23;;;;;;;9.45;4.17;;;;;;;24.24;82.38;99844.05;1674134;84;21047;-62
2022/08/23 10:39:04;;;;;;;10.53;4.67;;;;;;;24.19;81.48;99846.34;1674578;84;21015;-61
2022/08/23 10:42:02;;;;;;;11.35;5.33;;;;;;;24.11;81.79;99839.63;1696059;83;20944;-62
2022/08/23 10:44:37;;;;;;;14.78;4.80;;;;;;;23.94;83.03;99837.34;1717726;83;21722;-62
2022/08/23 10:47:31;;;;;;;14.93;5.03;;;;;;;24.02;83.19;99844.06;1713251;83;20943;-63
2022/08/23 10:50:06;;;;;;;12.78;5.35;;;;;;;23.99;81.67;99842.22;1708400;82;21497;-62
2022/08/23 10:52:43;;;;;;;12.78;5.45;;;;;;;23.56;83.02;99847.35;1680144;83;20890;-62
2022/08/23 10:55:33;;;;;;;12.18;5.03;;;;;;;23.42;83.08;99846.05;1680525;84;20954;-62
2022/08/23 10:57:48;;;;;;;10.45;4.70;;;;;;;23.40;82.62;99850.69;1693995;82;21056;-62
2022/08/23 11:00:20;;;;;;;15.53;4.80;;;;;;;23.86;83.00;99840.80;1698376;84;21451;-62
2022/08/23 11:03:19;;;;;;;11.73;4.25;;;;;;;24.05;82.16;99839.75;1695752;84;20954;-62
2022/08/23 11:06:25;;;;;;;15.63;4.65;;;;;;;24.04;81.19;99845.26;1710532;82;20875;-62
2022/08/23 11:09:07;;;;;;;;;;;;;;;23.69;80.38;99836.28;1691193;83;21482;-62
2022/08/23 11:11:51;;;;;;;12.35;4.60;;;;;;;23.38;81.69;99836.67;1701042;83;21134;-62
2022/08/23 11:14:39;;;;;;;9.28;4.75;;;;;;;23.22;81.64;99833.87;1704339;84;20953;-62
2022/08/23 11:17:11;;;;;;;7.78;3.80;;;;;;;23.36;83.02;99840.52;1709671;83;20949;-62
2022/08/23 11:19:57;;;;;;;9.68;4.12;;;;;;;23.55;80.74;99831.50;1699836;84;20957;-62
2022/08/23 11:22:31;;;;;;;8.18;4.00;;;;;;;23.79;81.03;99830.41;1744195;80;21456;-62
2022/08/23 11:25:04;;;;;;;8.68;3.37;;;;;;;23.84;79.53;99822.78;1744173;82;21085;-61
2022/08/23 11:27:40;;;;;;;7.15;3.92;;;;;;;23.63;79.33;99826.23;1741720;82;21571;-62
2022/08/23 11:30:44;;;;;;;12.28;3.67;;;;;;;23.23;79.52;99823.55;1748604;82;20962;-62
2022/08/23 11:33:21;;;;;;;10.50;3.35;;;;;;;23.21;80.46;99818.87;1744035;82;21487;-62
2022/08/23 11:35:55;;;;;;;7.80;3.98;;;;;;;23.67;81.34;99811.63;1741001;81;21527;-62
2022/08/23 11:38:50;;;;;;;7.50;3.60;;;;;;;24.11;80.45;99824.95;1741043;81;21857;-62
2022/08/23 11:41:24;;;;;;;9.00;3.70;;;;;;;24.16;79.77;99822.66;1735925;81;20898;-62
2022/08/23 11:44:05;;;;;;;8.60;3.22;;;;;;;24.41;78.25;99812.13;1748348;82;20852;-62
2022/08/23 11:46:52;;;;;;;9.33;3.98;;;;;;;24.38;77.69;99817.78;1746269;82;20887;-62
2022/08/23 11:49:39;;;;;;;9.70;3.90;;;;;;;24.25;77.66;99819.03;1732769;82;20933;-62
2022/08/23 11:52:28;;;;;;;11.05;4.00;;;;;;;24.43;78.13;99815.48;1749801;81;21079;-62
2022/08/23 11:55:36;;;;;;;13.32;4.03;;;;;;;24.64;78.84;99815.91;1760307;81;21029;-62
2022/08/23 11:58:50;;;;;;;15.18;4.20;;;;;;;24.43;75.34;99827.48;1758030;81;20933;-64
2022/08/23 12:01:31;;;;;;;14.35;4.65;;;;;;;24.21;76.60;99829.69;1743071;80;20866;-63
2022/08/23 12:04:28;;;;;;;13.50;4.05;;;;;;;24.07;75.71;99832.44;1749799;81;20867;-63
2022/08/23 12:07:01;;;;;;;11.15;3.90;;;;;;;24.09;77.68;99822.96;1750774;81;21114;-64
2022/08/23 12:09:30;;;;;;;8.13;4.05;;;;;;;24.49;76.79;99817.53;1747643;81;20895;-63
2022/08/23 12:12:02;;;;;;;10.18;3.98;;;;;;;24.66;77.23;99819.27;1746772;81;20899;-62
2022/08/23 12:14:37;;;;;;;10.32;3.98;;;;;;;24.67;74.55;99823.59;1741732;80;20943;-62